Aeroporto :
LOGIN :

Iscrizione | Disclaimer

   EN    FR    IT 

 










Sommario :    VFR   VFR Marginale   IFR   IFR Intensivo   IFR Molto Intensivo
Visibilità : 
Base nubi : 
>= 8 km
>= 3000ft
5 / 8 km
1000 / 3000 ft
1500m / 5 km
500 / 1000 ft
800 / 1500m
200 / 500 ft
< 800m
< 200 ft
Simboli :   Temporali  Nebbia  Neve Forte  Precipitazioni Forti  Vento > 20 kt
SIGMETs :   Varie  Temporali  Ghiacco  Turbolenza  Onda orograficha  Ceneri Vulcaniche






- Altitudine del aeroporto : 502 ft
- Codice IATA : ORK


EICK - Cork

ULTIMO METAR :
  • 230200Z 23027G38KT 3000 -RA OVC005 11/11 Q1008 TEMPO BKN003

METARs OBSOLETI :
  • 230130Z 23028G43KT 3000 -RA OVC005 11/11 Q1008 TEMPO BKN003
  • 230100Z 23026G42KT 3000 -RA OVC004 11/10 Q1008 TEMPO 0800
  • 230030Z 22019G29KT 2500 -RA BKN002 09/09 Q1009 TEMPO 0800
  • 230000Z 18010KT 1800 -RA BKN002 07/07 Q1010 TEMPO 0800
  • 222330Z 20010KT 160V230 1800 -RA BKN002 07/07 Q1011 TEMPO 0800

TAF TAF EICK
Valido dal 23 a 00 ore il 24 a 00 ore UTC


222300Z 2300/2324 22011KT 4000 -RADZ SCT002 BKN005
TEMPO 2300/2306 1200 RADZ BR BKN002
PROB40
TEMPO 2300/2304 0800 FG
BECMG 2301/2303 24027G40KT
BECMG 2304/2306 27022G37KT
BECMG 2306/2308 28014KT 9999 NSW FEW012 BKN020
PROB40
TEMPO 2308/2312 5000 -SHRA BKN012
BECMG 2309/2311 31014KT
BECMG 2314/2316 32005KT
BECMG 2316/2318 VRB03KT
BECMG 2318/2320 12010KT -DZ SCT008 BKN015
BECMG 2320/2322 16014KT 5000 -RA SCT003 BKN008
TEMPO 2321/2324 2000 -RADZ BR BKN003
BECMG 2323/2324 21018G30KT



MetMap, La meteo Aeronautica in un colpo d'occhio ! - Copyright ORBIFLY Dicembre 2007 - Disclaimer

ORBIFLY MET'MAP TEAM :

Programmazione e sviluppo : Alexandra Zaïnal
Concezione : Baudouin d'Aumeries
Aiuto per la programmazione : Marc-Olivier Méhu
Supporto tecnico e logistico : Manuel Goepfert
Aiuto per la traduzione : Arnaldo La Scala

Contatto : metmap@orbifly.com




FONTI E CREDITI :

   NOAA